sensor_id;sensor_type;location;lat;lon;timestamp;P1;durP1;ratioP1;P2;durP2;ratioP2
17482;SDS011;8858;52.308;20.994;2024-01-15T00:00:12;9.10;;;7.50;;
17482;SDS011;8858;52.308;20.994;2024-01-15T00:02:43;13.80;;;9.90;;
17482;SDS011;8858;52.308;20.994;2024-01-15T00:05:12;10.67;;;7.83;;
17482;SDS011;8858;52.308;20.994;2024-01-15T00:07:42;10.53;;;7.60;;
17482;SDS011;8858;52.308;20.994;2024-01-15T00:10:11;9.50;;;7.20;;
17482;SDS011;8858;52.308;20.994;2024-01-15T00:12:39;10.03;;;7.43;;
17482;SDS011;8858;52.308;20.994;2024-01-15T00:15:11;9.20;;;7.50;;
17482;SDS011;8858;52.308;20.994;2024-01-15T00:17:39;11.50;;;7.47;;
17482;SDS011;8858;52.308;20.994;2024-01-15T00:20:10;9.13;;;7.33;;
17482;SDS011;8858;52.308;20.994;2024-01-15T00:22:39;9.87;;;8.10;;
17482;SDS011;8858;52.308;20.994;2024-01-15T00:25:10;13.40;;;8.83;;
17482;SDS011;8858;52.308;20.994;2024-01-15T00:27:40;9.73;;;7.90;;
17482;SDS011;8858;52.308;20.994;2024-01-15T00:30:09;10.77;;;8.23;;
17482;SDS011;8858;52.308;20.994;2024-01-15T00:32:38;10.03;;;8.97;;
17482;SDS011;8858;52.308;20.994;2024-01-15T00:35:07;14.00;;;8.77;;
17482;SDS011;8858;52.308;20.994;2024-01-15T00:37:36;11.57;;;8.80;;
17482;SDS011;8858;52.308;20.994;2024-01-15T00:40:05;10.63;;;9.23;;
17482;SDS011;8858;52.308;20.994;2024-01-15T00:42:37;10.23;;;8.83;;
17482;SDS011;8858;52.308;20.994;2024-01-15T00:45:07;11.73;;;9.20;;
17482;SDS011;8858;52.308;20.994;2024-01-15T00:47:37;12.47;;;9.10;;
17482;SDS011;8858;52.308;20.994;2024-01-15T00:50:06;11.70;;;8.97;;
17482;SDS011;8858;52.308;20.994;2024-01-15T00:52:38;12.53;;;8.83;;
17482;SDS011;8858;52.308;20.994;2024-01-15T00:55:07;12.80;;;8.70;;
17482;SDS011;8858;52.308;20.994;2024-01-15T00:57:38;13.17;;;9.07;;
17482;SDS011;8858;52.308;20.994;2024-01-15T01:00:07;12.37;;;8.77;;
17482;SDS011;8858;52.308;20.994;2024-01-15T01:02:36;12.53;;;9.37;;
17482;SDS011;8858;52.308;20.994;2024-01-15T01:05:05;10.73;;;9.00;;
17482;SDS011;8858;52.308;20.994;2024-01-15T01:07:34;11.87;;;9.90;;
17482;SDS011;8858;52.308;20.994;2024-01-15T01:10:03;11.23;;;9.57;;
17482;SDS011;8858;52.308;20.994;2024-01-15T01:12:32;10.73;;;9.43;;
17482;SDS011;8858;52.308;20.994;2024-01-15T01:15:03;11.53;;;8.67;;
17482;SDS011;8858;52.308;20.994;2024-01-15T01:17:33;11.40;;;8.97;;
17482;SDS011;8858;52.308;20.994;2024-01-15T01:20:01;10.07;;;9.00;;
17482;SDS011;8858;52.308;20.994;2024-01-15T01:22:34;10.93;;;9.50;;
17482;SDS011;8858;52.308;20.994;2024-01-15T01:25:03;10.67;;;8.67;;
17482;SDS011;8858;52.308;20.994;2024-01-15T01:27:32;11.60;;;10.10;;
17482;SDS011;8858;52.308;20.994;2024-01-15T01:30:00;12.40;;;10.17;;
17482;SDS011;8858;52.308;20.994;2024-01-15T01:32:29;9.83;;;8.83;;
17482;SDS011;8858;52.308;20.994;2024-01-15T01:35:01;11.13;;;9.73;;
17482;SDS011;8858;52.308;20.994;2024-01-15T01:37:31;11.17;;;9.20;;
17482;SDS011;8858;52.308;20.994;2024-01-15T01:40:01;10.80;;;8.60;;
17482;SDS011;8858;52.308;20.994;2024-01-15T01:42:30;12.17;;;9.73;;
17482;SDS011;8858;52.308;20.994;2024-01-15T01:44:58;11.87;;;9.97;;
17482;SDS011;8858;52.308;20.994;2024-01-15T01:47:27;12.97;;;9.83;;
17482;SDS011;8858;52.308;20.994;2024-01-15T01:49:57;12.00;;;9.63;;
17482;SDS011;8858;52.308;20.994;2024-01-15T01:52:26;12.50;;;10.33;;
17482;SDS011;8858;52.308;20.994;2024-01-15T01:54:58;12.43;;;10.00;;
17482;SDS011;8858;52.308;20.994;2024-01-15T01:57:31;11.57;;;10.17;;
17482;SDS011;8858;52.308;20.994;2024-01-15T02:00:04;12.87;;;10.07;;
17482;SDS011;8858;52.308;20.994;2024-01-15T02:02:37;13.43;;;10.07;;
17482;SDS011;8858;52.308;20.994;2024-01-15T02:05:07;12.77;;;9.80;;
17482;SDS011;8858;52.308;20.994;2024-01-15T02:07:37;14.03;;;10.33;;
17482;SDS011;8858;52.308;20.994;2024-01-15T02:10:06;12.77;;;10.10;;
17482;SDS011;8858;52.308;20.994;2024-01-15T02:12:36;12.53;;;10.30;;
17482;SDS011;8858;52.308;20.994;2024-01-15T02:15:05;11.87;;;10.37;;
17482;SDS011;8858;52.308;20.994;2024-01-15T02:17:34;13.57;;;10.07;;
17482;SDS011;8858;52.308;20.994;2024-01-15T02:20:03;13.50;;;10.63;;
17482;SDS011;8858;52.308;20.994;2024-01-15T02:22:34;12.17;;;10.37;;
17482;SDS011;8858;52.308;20.994;2024-01-15T02:25:04;12.23;;;10.40;;
17482;SDS011;8858;52.308;20.994;2024-01-15T02:27:33;13.63;;;10.77;;
17482;SDS011;8858;52.308;20.994;2024-01-15T02:30:02;12.70;;;11.10;;
17482;SDS011;8858;52.308;20.994;2024-01-15T02:32:33;12.53;;;10.30;;
17482;SDS011;8858;52.308;20.994;2024-01-15T02:35:01;12.53;;;10.50;;
17482;SDS011;8858;52.308;20.994;2024-01-15T02:37:31;13.63;;;10.53;;
17482;SDS011;8858;52.308;20.994;2024-01-15T02:39:59;13.93;;;10.77;;
17482;SDS011;8858;52.308;20.994;2024-01-15T02:42:29;14.33;;;11.07;;
17482;SDS011;8858;52.308;20.994;2024-01-15T02:44:57;13.23;;;10.50;;
17482;SDS011;8858;52.308;20.994;2024-01-15T02:47:25;14.27;;;11.30;;
17482;SDS011;8858;52.308;20.994;2024-01-15T02:49:54;12.97;;;10.73;;
17482;SDS011;8858;52.308;20.994;2024-01-15T02:52:23;12.83;;;10.47;;
17482;SDS011;8858;52.308;20.994;2024-01-15T02:54:51;14.83;;;10.87;;
17482;SDS011;8858;52.308;20.994;2024-01-15T02:57:19;15.37;;;11.97;;
17482;SDS011;8858;52.308;20.994;2024-01-15T02:59:49;14.93;;;11.17;;
17482;SDS011;8858;52.308;20.994;2024-01-15T03:02:18;14.23;;;11.03;;
17482;SDS011;8858;52.308;20.994;2024-01-15T03:04:46;14.57;;;11.87;;
17482;SDS011;8858;52.308;20.994;2024-01-15T03:07:15;15.63;;;11.80;;
17482;SDS011;8858;52.308;20.994;2024-01-15T03:09:43;15.80;;;11.77;;
17482;SDS011;8858;52.308;20.994;2024-01-15T03:12:12;14.67;;;12.03;;
17482;SDS011;8858;52.308;20.994;2024-01-15T03:14:42;14.53;;;11.20;;
17482;SDS011;8858;52.308;20.994;2024-01-15T03:17:11;14.17;;;11.63;;
17482;SDS011;8858;52.308;20.994;2024-01-15T03:19:40;13.67;;;11.40;;
17482;SDS011;8858;52.308;20.994;2024-01-15T03:22:09;13.93;;;12.10;;
17482;SDS011;8858;52.308;20.994;2024-01-15T03:24:38;16.07;;;11.63;;
17482;SDS011;8858;52.308;20.994;2024-01-15T03:27:10;14.27;;;11.83;;
17482;SDS011;8858;52.308;20.994;2024-01-15T03:29:39;15.90;;;11.80;;
17482;SDS011;8858;52.308;20.994;2024-01-15T03:32:07;13.83;;;11.70;;
17482;SDS011;8858;52.308;20.994;2024-01-15T03:34:37;14.27;;;11.43;;
17482;SDS011;8858;52.308;20.994;2024-01-15T03:37:05;13.07;;;11.43;;
17482;SDS011;8858;52.308;20.994;2024-01-15T03:39:38;14.07;;;11.50;;
17482;SDS011;8858;52.308;20.994;2024-01-15T03:42:07;13.57;;;11.07;;
17482;SDS011;8858;52.308;20.994;2024-01-15T03:44:36;14.07;;;11.93;;
17482;SDS011;8858;52.308;20.994;2024-01-15T03:47:04;13.97;;;11.00;;
17482;SDS011;8858;52.308;20.994;2024-01-15T03:49:34;16.57;;;12.20;;
17482;SDS011;8858;52.308;20.994;2024-01-15T03:52:07;12.43;;;10.93;;
17482;SDS011;8858;52.308;20.994;2024-01-15T03:54:36;14.03;;;11.27;;
17482;SDS011;8858;52.308;20.994;2024-01-15T03:57:05;14.10;;;11.17;;
17482;SDS011;8858;52.308;20.994;2024-01-15T03:59:33;13.70;;;11.03;;
17482;SDS011;8858;52.308;20.994;2024-01-15T04:02:02;13.87;;;11.10;;
17482;SDS011;8858;52.308;20.994;2024-01-15T04:04:30;14.27;;;10.90;;
17482;SDS011;8858;52.308;20.994;2024-01-15T04:06:59;15.83;;;12.33;;
17482;SDS011;8858;52.308;20.994;2024-01-15T04:09:29;13.37;;;11.10;;
17482;SDS011;8858;52.308;20.994;2024-01-15T04:11:59;13.67;;;10.47;;
17482;SDS011;8858;52.308;20.994;2024-01-15T04:14:27;14.20;;;11.27;;
17482;SDS011;8858;52.308;20.994;2024-01-15T04:16:55;13.67;;;11.13;;
17482;SDS011;8858;52.308;20.994;2024-01-15T04:19:26;16.03;;;10.90;;
17482;SDS011;8858;52.308;20.994;2024-01-15T04:21:54;13.73;;;10.87;;
17482;SDS011;8858;52.308;20.994;2024-01-15T04:24:24;13.17;;;10.67;;
17482;SDS011;8858;52.308;20.994;2024-01-15T04:26:54;14.70;;;10.70;;
17482;SDS011;8858;52.308;20.994;2024-01-15T04:29:22;12.77;;;10.37;;
17482;SDS011;8858;52.308;20.994;2024-01-15T04:31:51;13.30;;;10.10;;
17482;SDS011;8858;52.308;20.994;2024-01-15T04:34:20;14.63;;;10.17;;
17482;SDS011;8858;52.308;20.994;2024-01-15T04:36:52;11.63;;;10.10;;
17482;SDS011;8858;52.308;20.994;2024-01-15T04:39:21;13.20;;;10.00;;
17482;SDS011;8858;52.308;20.994;2024-01-15T04:41:51;14.57;;;10.10;;
17482;SDS011;8858;52.308;20.994;2024-01-15T04:44:20;12.80;;;10.27;;
17482;SDS011;8858;52.308;20.994;2024-01-15T04:46:49;12.77;;;9.83;;
17482;SDS011;8858;52.308;20.994;2024-01-15T04:49:17;17.03;;;9.83;;
17482;SDS011;8858;52.308;20.994;2024-01-15T04:51:46;13.10;;;9.70;;
17482;SDS011;8858;52.308;20.994;2024-01-15T04:54:14;11.73;;;9.40;;
17482;SDS011;8858;52.308;20.994;2024-01-15T04:56:45;11.20;;;9.53;;
17482;SDS011;8858;52.308;20.994;2024-01-15T04:59:13;10.63;;;8.43;;
17482;SDS011;8858;52.308;20.994;2024-01-15T05:01:47;11.50;;;9.20;;
17482;SDS011;8858;52.308;20.994;2024-01-15T05:04:16;10.40;;;8.83;;
17482;SDS011;8858;52.308;20.994;2024-01-15T05:06:45;11.50;;;9.20;;
17482;SDS011;8858;52.308;20.994;2024-01-15T05:09:14;11.73;;;8.93;;
17482;SDS011;8858;52.308;20.994;2024-01-15T05:11:44;10.53;;;8.70;;
17482;SDS011;8858;52.308;20.994;2024-01-15T05:14:15;11.20;;;9.60;;
17482;SDS011;8858;52.308;20.994;2024-01-15T05:16:47;10.40;;;8.87;;
17482;SDS011;8858;52.308;20.994;2024-01-15T05:19:17;10.30;;;8.80;;
17482;SDS011;8858;52.308;20.994;2024-01-15T05:21:46;10.53;;;8.77;;
17482;SDS011;8858;52.308;20.994;2024-01-15T05:24:14;10.57;;;8.50;;
17482;SDS011;8858;52.308;20.994;2024-01-15T05:26:43;11.87;;;8.77;;
17482;SDS011;8858;52.308;20.994;2024-01-15T05:29:12;10.03;;;8.83;;
17482;SDS011;8858;52.308;20.994;2024-01-15T05:31:41;11.20;;;8.23;;
17482;SDS011;8858;52.308;20.994;2024-01-15T05:34:15;11.17;;;8.77;;
17482;SDS011;8858;52.308;20.994;2024-01-15T05:36:44;10.60;;;9.37;;
17482;SDS011;8858;52.308;20.994;2024-01-15T05:39:14;11.13;;;9.63;;
17482;SDS011;8858;52.308;20.994;2024-01-15T05:41:46;10.90;;;8.70;;
17482;SDS011;8858;52.308;20.994;2024-01-15T05:44:17;11.33;;;9.27;;
17482;SDS011;8858;52.308;20.994;2024-01-15T05:46:46;11.80;;;9.17;;
17482;SDS011;8858;52.308;20.994;2024-01-15T05:49:17;11.10;;;9.57;;
17482;SDS011;8858;52.308;20.994;2024-01-15T05:51:46;11.87;;;9.20;;
17482;SDS011;8858;52.308;20.994;2024-01-15T05:54:14;11.87;;;9.23;;
17482;SDS011;8858;52.308;20.994;2024-01-15T05:56:46;13.07;;;9.30;;
17482;SDS011;8858;52.308;20.994;2024-01-15T05:59:15;13.37;;;10.63;;
17482;SDS011;8858;52.308;20.994;2024-01-15T06:01:43;9.87;;;8.67;;
17482;SDS011;8858;52.308;20.994;2024-01-15T06:04:12;11.57;;;10.03;;
17482;SDS011;8858;52.308;20.994;2024-01-15T06:06:41;10.87;;;9.47;;
17482;SDS011;8858;52.308;20.994;2024-01-15T06:09:13;13.00;;;9.10;;
17482;SDS011;8858;52.308;20.994;2024-01-15T06:11:41;11.17;;;8.77;;
17482;SDS011;8858;52.308;20.994;2024-01-15T06:14:09;12.70;;;9.60;;
17482;SDS011;8858;52.308;20.994;2024-01-15T06:16:38;9.67;;;8.67;;
17482;SDS011;8858;52.308;20.994;2024-01-15T06:19:06;12.10;;;9.37;;
17482;SDS011;8858;52.308;20.994;2024-01-15T06:21:35;11.37;;;9.00;;
17482;SDS011;8858;52.308;20.994;2024-01-15T06:24:08;11.13;;;9.40;;
17482;SDS011;8858;52.308;20.994;2024-01-15T06:26:37;12.33;;;9.40;;
17482;SDS011;8858;52.308;20.994;2024-01-15T06:29:05;10.60;;;9.23;;
17482;SDS011;8858;52.308;20.994;2024-01-15T06:31:34;12.70;;;9.73;;
17482;SDS011;8858;52.308;20.994;2024-01-15T06:34:03;13.17;;;10.93;;
17482;SDS011;8858;52.308;20.994;2024-01-15T06:36:32;10.70;;;9.60;;
17482;SDS011;8858;52.308;20.994;2024-01-15T06:39:01;10.57;;;8.27;;
17482;SDS011;8858;52.308;20.994;2024-01-15T06:41:31;10.03;;;8.53;;
17482;SDS011;8858;52.308;20.994;2024-01-15T06:44:00;10.50;;;8.90;;
17482;SDS011;8858;52.308;20.994;2024-01-15T06:46:29;13.03;;;9.30;;
17482;SDS011;8858;52.308;20.994;2024-01-15T06:48:57;11.13;;;8.80;;
17482;SDS011;8858;52.308;20.994;2024-01-15T06:51:25;10.97;;;9.00;;
17482;SDS011;8858;52.308;20.994;2024-01-15T06:53:57;9.40;;;8.40;;
17482;SDS011;8858;52.308;20.994;2024-01-15T06:56:25;10.33;;;8.90;;
17482;SDS011;8858;52.308;20.994;2024-01-15T06:58:55;13.57;;;9.63;;
17482;SDS011;8858;52.308;20.994;2024-01-15T07:01:23;11.87;;;10.50;;
17482;SDS011;8858;52.308;20.994;2024-01-15T07:03:52;10.43;;;9.33;;
17482;SDS011;8858;52.308;20.994;2024-01-15T07:06:20;11.00;;;9.50;;
17482;SDS011;8858;52.308;20.994;2024-01-15T07:08:49;13.20;;;10.20;;
17482;SDS011;8858;52.308;20.994;2024-01-15T07:11:17;12.17;;;9.70;;
17482;SDS011;8858;52.308;20.994;2024-01-15T07:13:45;12.60;;;10.07;;
17482;SDS011;8858;52.308;20.994;2024-01-15T07:16:15;11.23;;;10.03;;
17482;SDS011;8858;52.308;20.994;2024-01-15T07:19:05;11.10;;;9.70;;
17482;SDS011;8858;52.308;20.994;2024-01-15T07:21:34;12.63;;;10.00;;
17482;SDS011;8858;52.308;20.994;2024-01-15T07:24:03;12.63;;;10.27;;
17482;SDS011;8858;52.308;20.994;2024-01-15T07:26:32;12.13;;;9.27;;
17482;SDS011;8858;52.308;20.994;2024-01-15T07:29:01;11.03;;;9.13;;
17482;SDS011;8858;52.308;20.994;2024-01-15T07:31:34;11.47;;;9.53;;
17482;SDS011;8858;52.308;20.994;2024-01-15T07:34:04;11.47;;;10.13;;
17482;SDS011;8858;52.308;20.994;2024-01-15T07:36:32;11.53;;;9.90;;
17482;SDS011;8858;52.308;20.994;2024-01-15T07:39:01;15.17;;;12.03;;
17482;SDS011;8858;52.308;20.994;2024-01-15T07:41:29;11.97;;;9.63;;
17482;SDS011;8858;52.308;20.994;2024-01-15T07:43:57;12.03;;;9.73;;
17482;SDS011;8858;52.308;20.994;2024-01-15T07:46:26;12.03;;;10.00;;
17482;SDS011;8858;52.308;20.994;2024-01-15T07:48:59;12.93;;;9.83;;
17482;SDS011;8858;52.308;20.994;2024-01-15T07:51:28;11.47;;;9.83;;
17482;SDS011;8858;52.308;20.994;2024-01-15T07:53:56;11.20;;;9.30;;
17482;SDS011;8858;52.308;20.994;2024-01-15T07:56:25;11.10;;;9.47;;
17482;SDS011;8858;52.308;20.994;2024-01-15T07:58:54;11.00;;;9.70;;
17482;SDS011;8858;52.308;20.994;2024-01-15T08:01:27;11.57;;;8.83;;
17482;SDS011;8858;52.308;20.994;2024-01-15T08:03:55;10.97;;;8.73;;
17482;SDS011;8858;52.308;20.994;2024-01-15T08:06:25;12.37;;;9.63;;
17482;SDS011;8858;52.308;20.994;2024-01-15T08:08:57;11.60;;;9.23;;
17482;SDS011;8858;52.308;20.994;2024-01-15T08:11:25;10.13;;;8.97;;
17482;SDS011;8858;52.308;20.994;2024-01-15T08:13:55;10.37;;;9.23;;
17482;SDS011;8858;52.308;20.994;2024-01-15T08:16:23;12.30;;;9.43;;
17482;SDS011;8858;52.308;20.994;2024-01-15T08:18:53;10.43;;;8.80;;
17482;SDS011;8858;52.308;20.994;2024-01-15T08:21:26;10.17;;;9.17;;
17482;SDS011;8858;52.308;20.994;2024-01-15T08:23:56;11.83;;;10.20;;
17482;SDS011;8858;52.308;20.994;2024-01-15T08:26:26;11.30;;;9.30;;
17482;SDS011;8858;52.308;20.994;2024-01-15T08:28:54;11.13;;;8.57;;
17482;SDS011;8858;52.308;20.994;2024-01-15T08:31:22;12.77;;;9.10;;
17482;SDS011;8858;52.308;20.994;2024-01-15T08:33:51;13.50;;;9.80;;
17482;SDS011;8858;52.308;20.994;2024-01-15T08:36:19;12.33;;;8.80;;
17482;SDS011;8858;52.308;20.994;2024-01-15T08:38:50;10.13;;;8.87;;
17482;SDS011;8858;52.308;20.994;2024-01-15T08:41:19;10.20;;;8.57;;
17482;SDS011;8858;52.308;20.994;2024-01-15T08:43:47;9.63;;;7.87;;
17482;SDS011;8858;52.308;20.994;2024-01-15T08:46:16;10.03;;;8.53;;
17482;SDS011;8858;52.308;20.994;2024-01-15T08:48:45;9.70;;;8.50;;
17482;SDS011;8858;52.308;20.994;2024-01-15T08:51:15;10.40;;;8.50;;
17482;SDS011;8858;52.308;20.994;2024-01-15T08:53:45;9.37;;;8.37;;
17482;SDS011;8858;52.308;20.994;2024-01-15T08:56:15;9.97;;;8.27;;
17482;SDS011;8858;52.308;20.994;2024-01-15T08:58:43;9.77;;;7.60;;
17482;SDS011;8858;52.308;20.994;2024-01-15T09:01:13;9.77;;;7.53;;
17482;SDS011;8858;52.308;20.994;2024-01-15T09:03:41;10.37;;;8.23;;
17482;SDS011;8858;52.308;20.994;2024-01-15T09:06:11;9.27;;;7.90;;
17482;SDS011;8858;52.308;20.994;2024-01-15T09:08:40;9.00;;;7.90;;
17482;SDS011;8858;52.308;20.994;2024-01-15T09:11:08;10.77;;;8.50;;
17482;SDS011;8858;52.308;20.994;2024-01-15T09:13:39;10.23;;;8.63;;
17482;SDS011;8858;52.308;20.994;2024-01-15T09:16:07;9.47;;;8.50;;
17482;SDS011;8858;52.308;20.994;2024-01-15T09:18:39;10.20;;;9.10;;
17482;SDS011;8858;52.308;20.994;2024-01-15T09:21:07;11.47;;;8.27;;
17482;SDS011;8858;52.308;20.994;2024-01-15T09:23:36;10.33;;;8.47;;
17482;SDS011;8858;52.308;20.994;2024-01-15T09:26:07;10.00;;;8.43;;
17482;SDS011;8858;52.308;20.994;2024-01-15T09:28:36;8.73;;;7.83;;
17482;SDS011;8858;52.308;20.994;2024-01-15T09:31:07;9.40;;;8.13;;
17482;SDS011;8858;52.308;20.994;2024-01-15T09:33:35;9.50;;;8.07;;
17482;SDS011;8858;52.308;20.994;2024-01-15T09:36:04;11.70;;;8.50;;
17482;SDS011;8858;52.308;20.994;2024-01-15T09:38:34;9.47;;;7.70;;
17482;SDS011;8858;52.308;20.994;2024-01-15T09:41:04;10.37;;;8.17;;
17482;SDS011;8858;52.308;20.994;2024-01-15T09:43:32;9.87;;;7.57;;
17482;SDS011;8858;52.308;20.994;2024-01-15T09:46:03;9.50;;;7.30;;
17482;SDS011;8858;52.308;20.994;2024-01-15T09:48:32;8.30;;;7.30;;
17482;SDS011;8858;52.308;20.994;2024-01-15T09:51:02;9.00;;;7.00;;
17482;SDS011;8858;52.308;20.994;2024-01-15T09:53:31;10.63;;;6.63;;
17482;SDS011;8858;52.308;20.994;2024-01-15T09:56:03;7.23;;;6.40;;
17482;SDS011;8858;52.308;20.994;2024-01-15T09:58:33;9.67;;;6.00;;
17482;SDS011;8858;52.308;20.994;2024-01-15T10:01:04;6.90;;;6.03;;
17482;SDS011;8858;52.308;20.994;2024-01-15T10:03:34;9.87;;;6.60;;
17482;SDS011;8858;52.308;20.994;2024-01-15T10:06:03;8.23;;;5.67;;
17482;SDS011;8858;52.308;20.994;2024-01-15T10:08:32;7.10;;;5.80;;
17482;SDS011;8858;52.308;20.994;2024-01-15T10:11:02;6.43;;;5.33;;
17482;SDS011;8858;52.308;20.994;2024-01-15T10:13:31;8.43;;;5.93;;
17482;SDS011;8858;52.308;20.994;2024-01-15T10:16:00;8.53;;;5.73;;
17482;SDS011;8858;52.308;20.994;2024-01-15T10:18:31;8.90;;;5.60;;
17482;SDS011;8858;52.308;20.994;2024-01-15T10:21:03;12.67;;;5.57;;
17482;SDS011;8858;52.308;20.994;2024-01-15T10:23:31;8.33;;;5.30;;
17482;SDS011;8858;52.308;20.994;2024-01-15T10:26:00;6.80;;;4.83;;
17482;SDS011;8858;52.308;20.994;2024-01-15T10:28:29;10.87;;;5.83;;
17482;SDS011;8858;52.308;20.994;2024-01-15T10:31:01;7.53;;;5.50;;
17482;SDS011;8858;52.308;20.994;2024-01-15T10:33:32;8.23;;;5.90;;
17482;SDS011;8858;52.308;20.994;2024-01-15T10:36:00;8.03;;;5.83;;
17482;SDS011;8858;52.308;20.994;2024-01-15T10:38:29;7.43;;;5.73;;
17482;SDS011;8858;52.308;20.994;2024-01-15T10:40:57;9.87;;;5.93;;
17482;SDS011;8858;52.308;20.994;2024-01-15T10:43:25;7.63;;;5.70;;
17482;SDS011;8858;52.308;20.994;2024-01-15T10:45:56;8.70;;;6.10;;
17482;SDS011;8858;52.308;20.994;2024-01-15T10:48:25;7.57;;;5.80;;
17482;SDS011;8858;52.308;20.994;2024-01-15T10:50:57;10.20;;;6.57;;
17482;SDS011;8858;52.308;20.994;2024-01-15T10:53:25;8.77;;;5.70;;
17482;SDS011;8858;52.308;20.994;2024-01-15T10:55:54;8.00;;;5.77;;
17482;SDS011;8858;52.308;20.994;2024-01-15T10:58:24;10.53;;;5.57;;
17482;SDS011;8858;52.308;20.994;2024-01-15T11:00:59;8.43;;;6.30;;
17482;SDS011;8858;52.308;20.994;2024-01-15T11:03:28;8.73;;;6.30;;
17482;SDS011;8858;52.308;20.994;2024-01-15T11:05:58;7.80;;;6.13;;
17482;SDS011;8858;52.308;20.994;2024-01-15T11:08:27;9.23;;;6.40;;
17482;SDS011;8858;52.308;20.994;2024-01-15T11:10:57;8.33;;;6.70;;
17482;SDS011;8858;52.308;20.994;2024-01-15T11:13:39;8.03;;;5.70;;
17482;SDS011;8858;52.308;20.994;2024-01-15T11:16:10;7.37;;;6.13;;
17482;SDS011;8858;52.308;20.994;2024-01-15T11:18:42;7.03;;;5.57;;
17482;SDS011;8858;52.308;20.994;2024-01-15T11:21:30;7.90;;;6.17;;
17482;SDS011;8858;52.308;20.994;2024-01-15T11:23:59;6.70;;;6.00;;
17482;SDS011;8858;52.308;20.994;2024-01-15T11:26:32;8.97;;;6.03;;
17482;SDS011;8858;52.308;20.994;2024-01-15T11:29:03;8.30;;;5.80;;
17482;SDS011;8858;52.308;20.994;2024-01-15T11:34:52;7.90;;;6.20;;
17482;SDS011;8858;52.308;20.994;2024-01-15T11:37:26;10.33;;;7.43;;
17482;SDS011;8858;52.308;20.994;2024-01-15T11:40:00;9.87;;;6.30;;
17482;SDS011;8858;52.308;20.994;2024-01-15T11:42:31;9.60;;;6.00;;
17482;SDS011;8858;52.308;20.994;2024-01-15T11:44:59;10.03;;;6.20;;
17482;SDS011;8858;52.308;20.994;2024-01-15T11:47:42;7.17;;;5.93;;
17482;SDS011;8858;52.308;20.994;2024-01-15T11:50:31;8.77;;;6.00;;
17482;SDS011;8858;52.308;20.994;2024-01-15T11:53:01;9.60;;;5.83;;
17482;SDS011;8858;52.308;20.994;2024-01-15T11:55:37;7.57;;;5.73;;
17482;SDS011;8858;52.308;20.994;2024-01-15T11:58:07;7.57;;;5.03;;
17482;SDS011;8858;52.308;20.994;2024-01-15T12:00:39;8.20;;;5.80;;
17482;SDS011;8858;52.308;20.994;2024-01-15T12:03:08;7.87;;;5.63;;
17482;SDS011;8858;52.308;20.994;2024-01-15T12:05:39;7.10;;;5.20;;
17482;SDS011;8858;52.308;20.994;2024-01-15T12:08:10;8.43;;;5.93;;
17482;SDS011;8858;52.308;20.994;2024-01-15T12:10:39;6.87;;;5.93;;
17482;SDS011;8858;52.308;20.994;2024-01-15T12:13:10;7.63;;;5.97;;
17482;SDS011;8858;52.308;20.994;2024-01-15T12:15:40;8.93;;;6.00;;
17482;SDS011;8858;52.308;20.994;2024-01-15T12:18:12;8.40;;;5.93;;
17482;SDS011;8858;52.308;20.994;2024-01-15T12:20:42;8.67;;;6.63;;
17482;SDS011;8858;52.308;20.994;2024-01-15T12:23:15;7.13;;;5.90;;
17482;SDS011;8858;52.308;20.994;2024-01-15T12:25:44;7.93;;;5.90;;
17482;SDS011;8858;52.308;20.994;2024-01-15T12:28:13;9.17;;;6.73;;
17482;SDS011;8858;52.308;20.994;2024-01-15T12:30:46;8.93;;;6.00;;
17482;SDS011;8858;52.308;20.994;2024-01-15T12:33:17;10.77;;;6.47;;
17482;SDS011;8858;52.308;20.994;2024-01-15T12:35:47;9.33;;;5.93;;
17482;SDS011;8858;52.308;20.994;2024-01-15T12:38:19;9.80;;;6.93;;
17482;SDS011;8858;52.308;20.994;2024-01-15T12:40:50;11.77;;;7.93;;
17482;SDS011;8858;52.308;20.994;2024-01-15T12:43:19;12.57;;;7.67;;
17482;SDS011;8858;52.308;20.994;2024-01-15T12:45:47;10.53;;;7.50;;
17482;SDS011;8858;52.308;20.994;2024-01-15T12:48:15;12.07;;;8.00;;
17482;SDS011;8858;52.308;20.994;2024-01-15T12:50:45;12.20;;;7.93;;
17482;SDS011;8858;52.308;20.994;2024-01-15T12:53:14;12.10;;;8.30;;
17482;SDS011;8858;52.308;20.994;2024-01-15T12:55:48;10.97;;;8.07;;
17482;SDS011;8858;52.308;20.994;2024-01-15T12:58:17;12.43;;;8.00;;
17482;SDS011;8858;52.308;20.994;2024-01-15T13:00:46;13.10;;;8.53;;
17482;SDS011;8858;52.308;20.994;2024-01-15T13:03:15;11.10;;;7.73;;
17482;SDS011;8858;52.308;20.994;2024-01-15T13:05:46;11.17;;;8.20;;
17482;SDS011;8858;52.308;20.994;2024-01-15T13:08:15;12.23;;;8.57;;
17482;SDS011;8858;52.308;20.994;2024-01-15T13:10:44;13.30;;;8.20;;
17482;SDS011;8858;52.308;20.994;2024-01-15T13:13:13;11.20;;;7.90;;
17482;SDS011;8858;52.308;20.994;2024-01-15T13:15:42;12.17;;;7.73;;
17482;SDS011;8858;52.308;20.994;2024-01-15T13:18:13;15.67;;;9.37;;
17482;SDS011;8858;52.308;20.994;2024-01-15T13:20:44;12.67;;;7.73;;
17482;SDS011;8858;52.308;20.994;2024-01-15T13:23:13;9.83;;;6.67;;
17482;SDS011;8858;52.308;20.994;2024-01-15T13:25:41;8.67;;;6.83;;
17482;SDS011;8858;52.308;20.994;2024-01-15T13:28:09;10.07;;;7.23;;
17482;SDS011;8858;52.308;20.994;2024-01-15T13:30:39;9.20;;;6.73;;
17482;SDS011;8858;52.308;20.994;2024-01-15T13:33:09;10.40;;;6.73;;
17482;SDS011;8858;52.308;20.994;2024-01-15T13:35:37;9.13;;;6.50;;
17482;SDS011;8858;52.308;20.994;2024-01-15T13:38:06;11.53;;;7.23;;
17482;SDS011;8858;52.308;20.994;2024-01-15T13:40:35;11.17;;;7.07;;
17482;SDS011;8858;52.308;20.994;2024-01-15T13:43:03;10.07;;;7.20;;
17482;SDS011;8858;52.308;20.994;2024-01-15T13:45:40;12.47;;;7.50;;
17482;SDS011;8858;52.308;20.994;2024-01-15T13:48:09;12.70;;;7.70;;
17482;SDS011;8858;52.308;20.994;2024-01-15T13:50:37;13.17;;;7.37;;
17482;SDS011;8858;52.308;20.994;2024-01-15T13:53:06;13.57;;;7.20;;
17482;SDS011;8858;52.308;20.994;2024-01-15T13:55:37;11.47;;;6.73;;
17482;SDS011;8858;52.308;20.994;2024-01-15T13:58:06;10.63;;;6.90;;
17482;SDS011;8858;52.308;20.994;2024-01-15T14:00:35;9.93;;;6.50;;
17482;SDS011;8858;52.308;20.994;2024-01-15T14:03:05;8.30;;;6.57;;
17482;SDS011;8858;52.308;20.994;2024-01-15T14:05:35;9.80;;;6.60;;
17482;SDS011;8858;52.308;20.994;2024-01-15T14:08:05;9.50;;;6.80;;
17482;SDS011;8858;52.308;20.994;2024-01-15T14:10:35;10.97;;;7.03;;
17482;SDS011;8858;52.308;20.994;2024-01-15T14:13:04;12.40;;;6.97;;
17482;SDS011;8858;52.308;20.994;2024-01-15T14:15:33;13.50;;;6.77;;
17482;SDS011;8858;52.308;20.994;2024-01-15T14:18:01;12.40;;;7.27;;
17482;SDS011;8858;52.308;20.994;2024-01-15T14:20:34;11.07;;;7.83;;
17482;SDS011;8858;52.308;20.994;2024-01-15T14:23:03;13.47;;;7.27;;
17482;SDS011;8858;52.308;20.994;2024-01-15T14:25:31;13.00;;;7.63;;
17482;SDS011;8858;52.308;20.994;2024-01-15T14:28:00;10.03;;;7.00;;
17482;SDS011;8858;52.308;20.994;2024-01-15T14:30:28;11.60;;;7.47;;
17482;SDS011;8858;52.308;20.994;2024-01-15T14:32:56;12.47;;;7.53;;
17482;SDS011;8858;52.308;20.994;2024-01-15T14:35:24;12.53;;;7.13;;
17482;SDS011;8858;52.308;20.994;2024-01-15T14:37:54;11.73;;;6.67;;
17482;SDS011;8858;52.308;20.994;2024-01-15T14:40:24;13.97;;;7.27;;
17482;SDS011;8858;52.308;20.994;2024-01-15T14:42:53;10.03;;;6.87;;
17482;SDS011;8858;52.308;20.994;2024-01-15T14:45:21;14.40;;;7.60;;
17482;SDS011;8858;52.308;20.994;2024-01-15T14:47:50;11.13;;;7.37;;
17482;SDS011;8858;52.308;20.994;2024-01-15T14:50:18;10.73;;;6.90;;
17482;SDS011;8858;52.308;20.994;2024-01-15T14:52:49;10.43;;;7.33;;